Time;durP1;ratioP1;P1;durP2;ratioP2;P2;SDS_P1;SDS_P2;PMS_P1;PMS_P2;Temp;Humidity;BMP_temperature;BMP_pressure;BME280_temperature;BME280_humidity;BME280_pressure;Samples;Min_cycle;Max_cycle;Signal;HPM_P1;HPM_P2
2023/09/18 00:05:15;;;;;;;10.80;8.70;;;;;;;16.10;82.83;99596.77;435258;1256;141118;-63
2023/09/18 00:15:22;;;;;;;8.70;7.80;;;;;;;16.09;83.65;99593.80;435710;1256;139589;-61
2023/09/18 00:25:27;;;;;;;10.20;8.20;;;;;;;16.03;83.88;99581.84;435330;1256;141658;-62
2023/09/18 00:35:33;;;;;;;9.20;7.70;;;;;;;16.01;84.74;99574.78;436050;1256;139407;-63
2023/09/18 00:45:43;;;;;;;9.00;8.10;;;;;;;15.93;84.56;99584.06;435932;1256;139201;-61
2023/09/18 00:55:50;;;;;;;9.10;8.10;;;;;;;15.75;84.37;99587.85;436277;1256;139649;-62
2023/09/18 01:05:56;;;;;;;9.70;8.80;;;;;;;15.63;84.97;99592.83;435596;1257;139447;-62
2023/09/18 01:16:09;;;;;;;9.40;8.50;;;;;;;15.60;86.12;99579.87;435858;1256;141037;-63
2023/09/18 01:26:15;;;;;;;11.10;8.60;;;;;;;15.56;86.74;99575.52;435934;1255;139399;-63
2023/09/18 01:36:22;;;;;;;9.20;8.20;;;;;;;15.54;87.43;99577.83;436227;1257;140926;-63
2023/09/18 01:46:28;;;;;;;9.80;8.80;;;;;;;15.49;87.81;99567.16;435931;1256;139725;-63
2023/09/18 01:56:34;;;;;;;10.50;9.50;;;;;;;15.41;88.17;99566.55;436212;1254;138937;-64
2023/09/18 02:06:40;;;;;;;10.20;9.30;;;;;;;15.36;88.74;99567.92;435724;1257;140497;-62
2023/09/18 02:16:46;;;;;;;11.40;10.30;;;;;;;15.30;89.44;99571.75;435052;1257;139987;-61
2023/09/18 02:26:52;;;;;;;12.40;10.00;;;;;;;15.25;89.90;99557.11;434746;1255;139697;-63
2023/09/18 02:36:58;;;;;;;10.20;9.20;;;;;;;15.20;90.42;99552.16;435452;1256;139548;-62
2023/09/18 02:47:04;;;;;;;12.90;9.80;;;;;;;15.14;90.86;99549.45;435203;1256;139294;-62
2023/09/18 02:57:10;;;;;;;12.20;10.60;;;;;;;15.07;91.28;99545.61;434737;1256;139678;-62
2023/09/18 03:07:16;;;;;;;14.00;11.30;;;;;;;15.02;91.70;99541.98;436899;1257;139530;-61
2023/09/18 03:17:22;;;;;;;13.00;11.50;;;;;;;14.97;92.00;99543.80;435071;1254;139360;-62
2023/09/18 03:27:28;;;;;;;11.00;9.90;;;;;;;14.92;92.49;99538.90;437156;1255;141009;-60
2023/09/18 03:37:34;;;;;;;12.10;10.90;;;;;;;14.89;92.96;99529.00;435497;1254;139425;-62
2023/09/18 03:47:41;;;;;;;11.10;10.00;;;;;;;14.82;93.30;99525.61;435484;1254;141018;-62
2023/09/18 03:57:48;;;;;;;13.60;11.70;;;;;;;14.75;93.83;99517.41;435478;1254;139883;-62
2023/09/18 04:07:54;;;;;;;13.70;11.70;;;;;;;14.69;94.29;99508.15;436518;1254;139873;-62
2023/09/18 04:18:00;;;;;;;13.10;11.80;;;;;;;14.67;94.85;99501.98;435305;1257;139861;-61
2023/09/18 04:28:06;;;;;;;13.00;11.10;;;;;;;14.65;95.35;99495.27;435150;1253;140901;-62
2023/09/18 04:38:14;;;;;;;11.70;10.50;;;;;;;14.71;96.08;99486.91;435650;1256;140850;-61
2023/09/18 04:48:20;;;;;;;11.40;9.80;;;;;;;14.93;96.66;99485.09;435429;1256;140228;-61
2023/09/18 04:58:26;;;;;;;11.70;10.70;;;;;;;15.21;96.68;99476.40;435543;1253;139449;-61
2023/09/18 05:08:32;;;;;;;12.00;11.00;;;;;;;15.69;96.56;99470.34;435136;1256;139913;-61
2023/09/18 05:18:38;;;;;;;11.10;10.00;;;;;;;16.16;95.22;99463.40;434919;1256;139348;-62
2023/09/18 05:28:44;;;;;;;12.00;10.00;;;;;;;16.80;95.24;99465.79;436081;1256;142610;-62
2023/09/18 05:38:50;;;;;;;9.00;8.20;;;;;;;20.11;94.67;99469.23;435648;1253;139259;-62
2023/09/18 05:48:58;;;;;;;7.50;6.80;;;;;;;23.72;85.75;99463.43;435589;1251;139491;-61
2023/09/18 05:59:04;;;;;;;9.50;7.60;;;;;;;25.57;74.49;99460.56;436561;1252;139744;-63
2023/09/18 06:09:10;;;;;;;7.40;6.70;;;;;;;26.73;69.38;99455.08;435753;1253;139161;-62
2023/09/18 06:19:17;;;;;;;12.50;7.60;;;;;;;27.25;63.07;99445.05;436005;1256;139338;-67
2023/09/18 06:29:23;;;;;;;9.10;7.80;;;;;;;27.13;62.52;99438.28;435561;1256;139207;-66
2023/09/18 06:39:29;;;;;;;7.80;6.90;;;;;;;29.94;58.65;99434.41;434823;1253;138988;-65
2023/09/18 06:49:35;;;;;;;10.10;7.20;;;;;;;30.84;55.10;99435.48;435298;1256;138193;-69
2023/09/18 06:59:41;;;;;;;6.50;6.00;;;;;;;34.20;51.36;99425.29;435235;1254;139425;-72
2023/09/18 07:09:47;;;;;;;6.90;6.30;;;;;;;37.30;45.55;99408.53;435045;1256;140133;-67
2023/09/18 07:20:13;;;;;;;5.50;5.00;;;;;;;39.01;41.17;99410.48;438587;1253;166735;-69
2023/09/18 07:30:21;;;;;;;5.70;5.20;;;;;;;40.54;37.89;99411.23;435475;1254;138594;-73
2023/09/18 07:40:28;;;;;;;6.50;5.90;;;;;;;41.38;35.20;99411.53;436947;1253;139998;-73
2023/09/18 07:50:33;;;;;;;6.30;5.70;;;;;;;42.55;33.21;99396.41;435781;1254;138306;-77
2023/09/18 08:00:39;;;;;;;7.20;6.00;;;;;;;43.14;31.11;99387.98;437716;1253;138427;-67
2023/09/18 08:10:45;;;;;;;6.20;5.70;;;;;;;43.88;29.79;99383.48;436728;1252;138241;-74
2023/09/18 08:20:51;;;;;;;6.10;5.60;;;;;;;44.40;28.66;99375.91;438654;1253;139509;-69
2023/09/18 08:30:58;;;;;;;7.60;6.80;;;;;;;44.09;27.65;99368.36;435545;1256;138316;-66
2023/09/18 08:41:05;;;;;;;6.90;6.40;;;;;;;42.16;27.74;99361.89;435303;1256;138994;-67
2023/09/18 08:51:12;;;;;;;8.20;7.40;;;;;;;39.51;28.72;99355.95;435657;1257;138876;-67
2023/09/18 09:01:18;;;;;;;7.30;6.80;;;;;;;35.84;31.55;99344.80;434969;1253;138632;-66
2023/09/18 09:11:23;;;;;;;9.30;7.70;;;;;;;34.13;33.66;99336.20;438816;1252;140148;-68
2023/09/18 09:21:43;;;;;;;8.40;7.70;;;;;;;32.58;34.74;99329.48;434882;1254;140274;-66
2023/09/18 09:31:50;;;;;;;9.20;8.40;;;;;;;31.41;36.67;99317.66;435688;1253;140289;-67
2023/09/18 09:42:00;;;;;;;9.80;9.00;;;;;;;31.08;37.73;99310.30;436331;1257;138755;-66
2023/09/18 09:52:22;;;;;;;9.20;8.40;;;;;;;31.16;37.97;99295.17;436391;1252;138376;-70
2023/09/18 10:02:28;;;;;;;9.30;8.50;;;;;;;30.89;38.54;99288.02;435118;1253;138193;-68
2023/09/18 10:12:35;;;;;;;9.50;8.70;;;;;;;30.57;38.55;99276.94;435397;1256;138229;-72
2023/09/18 10:22:46;;;;;;;9.40;8.70;;;;;;;30.05;39.05;99267.29;435232;1254;138280;-68
2023/09/18 10:32:53;;;;;;;10.00;8.70;;;;;;;29.93;39.34;99253.20;435227;1253;139130;-61
2023/09/18 10:42:58;;;;;;;;;;;;;;;29.81;39.56;99242.08;435595;1253;139576;-61
2023/09/18 10:53:04;;;;;;;9.80;8.90;;;;;;;29.62;39.61;99226.12;435571;1253;126355;-61
2023/09/18 11:03:17;;;;;;;10.70;9.50;;;;;;;29.16;39.50;99217.98;435234;1253;140333;-60
2023/09/18 11:13:31;;;;;;;10.40;9.40;;;;;;;28.68;39.81;99211.73;435798;1253;138402;-60
2023/09/18 11:23:42;;;;;;;8.50;7.80;;;;;;;28.46;40.43;99213.52;435399;1253;138665;-60
2023/09/18 11:33:48;;;;;;;9.10;8.40;;;;;;;28.36;40.50;99214.67;435386;1253;140388;-60
2023/09/18 11:44:16;;;;;;;9.50;8.60;;;;;;;28.14;40.31;99209.35;435243;1254;138503;-61
2023/09/18 11:54:23;;;;;;;10.30;9.30;;;;;;;27.94;40.64;99192.91;435904;1254;139799;-60
2023/09/18 12:04:32;;;;;;;10.50;9.50;;;;;;;27.74;41.08;99190.70;436449;1252;138508;-60
2023/09/18 12:14:41;;;;;;;11.40;9.40;;;;;;;27.74;41.58;99178.83;436139;1256;138929;-63
2023/09/18 12:24:47;;;;;;;9.80;9.00;;;;;;;27.66;41.99;99163.04;435935;1256;138822;-62
2023/09/18 12:34:54;;;;;;;10.90;10.10;;;;;;;27.51;42.01;99151.29;435534;1254;139741;-61
2023/09/18 12:45:00;;;;;;;11.30;10.10;;;;;;;27.42;42.22;99140.95;435348;1256;139302;-63
2023/09/18 12:55:06;;;;;;;11.50;9.30;;;;;;;27.30;42.37;99139.67;435706;1253;138748;-61
2023/09/18 13:05:14;;;;;;;9.90;9.10;;;;;;;27.30;42.56;99123.91;435765;1256;139110;-60
2023/09/18 13:15:29;;;;;;;9.90;9.10;;;;;;;27.17;42.64;99107.01;436504;1253;139743;-63
2023/09/18 13:25:37;;;;;;;10.60;9.60;;;;;;;26.91;42.73;99103.17;436261;1253;138371;-63
2023/09/18 13:35:45;;;;;;;9.40;8.50;;;;;;;26.69;42.84;99098.41;436106;1256;139005;-63
2023/09/18 13:45:52;;;;;;;9.80;8.30;;;;;;;26.63;42.66;99083.54;435625;1256;138361;-63
2023/09/18 13:55:58;;;;;;;8.40;7.60;;;;;;;26.59;42.90;99077.06;437458;1253;138197;-63
2023/09/18 14:06:06;;;;;;;9.50;7.50;;;;;;;26.57;42.85;99067.30;435437;1254;139137;-63
2023/09/18 14:16:14;;;;;;;7.50;6.80;;;;;;;26.58;42.66;99051.88;436173;1256;138869;-63
2023/09/18 14:26:20;;;;;;;8.30;7.70;;;;;;;26.57;42.44;99041.90;436312;1256;138772;-63
2023/09/18 14:36:27;;;;;;;8.20;7.40;;;;;;;26.52;42.31;99037.83;435837;1256;138825;-63
2023/09/18 14:46:33;;;;;;;7.70;7.10;;;;;;;26.44;42.42;99033.21;435675;1253;140000;-62
2023/09/18 14:56:40;;;;;;;7.70;7.10;;;;;;;26.36;42.34;99029.32;436263;1253;138503;-64
2023/09/18 15:06:46;;;;;;;8.70;7.90;;;;;;;26.26;42.55;99023.20;435743;1252;140911;-63
2023/09/18 15:16:52;;;;;;;8.30;7.40;;;;;;;26.20;42.56;99009.45;435482;1253;138739;-63
2023/09/18 15:26:58;;;;;;;9.20;8.30;;;;;;;26.07;42.72;98992.44;435487;1253;140549;-63
2023/09/18 15:37:05;;;;;;;8.30;7.60;;;;;;;25.92;43.08;98988.58;436180;1254;139754;-62
2023/09/18 15:47:11;;;;;;;8.40;7.60;;;;;;;25.71;43.37;98988.05;435917;1256;138744;-62
2023/09/18 15:57:17;;;;;;;8.60;7.90;;;;;;;25.45;44.01;98974.48;435417;1256;138752;-63
2023/09/18 16:07:22;;;;;;;9.50;8.60;;;;;;;25.12;44.63;98961.80;435455;1253;139311;-64
2023/09/18 16:17:28;;;;;;;8.30;7.60;;;;;;;24.76;45.21;98956.84;435561;1254;139668;-63
2023/09/18 16:27:34;;;;;;;8.00;7.20;;;;;;;24.40;45.86;98955.09;435420;1256;138971;-63
2023/09/18 16:37:45;;;;;;;8.90;8.00;;;;;;;24.08;46.67;98951.71;435511;1256;138249;-63
2023/09/18 16:47:52;;;;;;;8.90;8.10;;;;;;;23.73;47.49;98945.48;435627;1254;140431;-64
2023/09/18 16:57:59;;;;;;;12.40;8.30;;;;;;;23.36;48.41;98937.89;436290;1256;138232;-63
2023/09/18 17:08:06;;;;;;;10.00;9.10;;;;;;;23.01;49.28;98931.40;435739;1255;139354;-63
2023/09/18 17:18:13;;;;;;;13.00;8.60;;;;;;;22.71;50.24;98928.73;435562;1256;141201;-67
2023/09/18 17:28:19;;;;;;;9.80;9.00;;;;;;;22.42;51.14;98926.90;435549;1256;138381;-64
2023/09/18 17:38:25;;;;;;;11.70;10.20;;;;;;;22.16;51.92;98927.86;435600;1256;138299;-65
2023/09/18 17:48:31;;;;;;;9.60;8.60;;;;;;;21.89;52.67;98934.50;435233;1256;139830;-64
2023/09/18 17:58:37;;;;;;;12.50;8.80;;;;;;;21.62;53.52;98935.77;434985;1256;138590;-66
2023/09/18 18:08:43;;;;;;;14.50;9.10;;;;;;;21.38;54.11;98939.45;435554;1254;138769;-64
2023/09/18 18:18:48;;;;;;;13.50;9.90;;;;;;;21.16;55.01;98942.30;435303;1254;138348;-60
2023/09/18 18:28:57;;;;;;;12.50;10.80;;;;;;;20.95;55.96;98931.96;436275;1256;139392;-60
2023/09/18 18:39:01;;;;;;;;;;;;;;;20.74;56.85;98930.84;436212;1254;139635;-61
2023/09/18 18:49:07;;;;;;;12.90;11.50;;;;;;;20.56;57.74;98923.95;435580;1256;125299;-61
2023/09/18 18:59:13;;;;;;;12.70;9.80;;;;;;;20.39;58.59;98921.36;435525;1256;138984;-60
2023/09/18 19:09:19;;;;;;;13.60;12.20;;;;;;;20.21;59.41;98912.23;435397;1256;138903;-61
2023/09/18 19:19:25;;;;;;;13.70;12.40;;;;;;;20.02;60.17;98909.15;435353;1256;147175;-61
2023/09/18 19:29:32;;;;;;;13.90;12.30;;;;;;;19.85;60.92;98896.36;434897;1257;139571;-61
2023/09/18 19:39:38;;;;;;;14.30;11.50;;;;;;;19.65;61.70;98885.61;435889;1254;139857;-60
2023/09/18 19:49:44;;;;;;;14.70;12.10;;;;;;;19.47;62.32;98884.63;435474;1257;139757;-61
2023/09/18 19:59:52;;;;;;;15.20;12.60;;;;;;;19.31;63.14;98887.86;435351;1256;139378;-60
2023/09/18 20:09:58;;;;;;;13.50;12.10;;;;;;;19.16;63.97;98880.14;435427;1257;141225;-61
2023/09/18 20:20:04;;;;;;;14.30;12.60;;;;;;;19.02;64.56;98877.04;435355;1257;140074;-60
2023/09/18 20:30:13;;;;;;;15.80;12.80;;;;;;;18.89;65.21;98872.06;435536;1256;140423;-60
2023/09/18 20:40:20;;;;;;;14.90;12.20;;;;;;;18.80;66.00;98870.42;435706;1256;140889;-60
2023/09/18 20:50:26;;;;;;;14.50;11.70;;;;;;;18.73;66.69;98860.96;435994;1257;139492;-60
2023/09/18 21:00:34;;;;;;;14.10;11.70;;;;;;;18.71;67.35;98854.13;435356;1255;139290;-61
2023/09/18 21:10:40;;;;;;;13.30;12.10;;;;;;;18.67;67.84;98851.27;435250;1256;140610;-60
2023/09/18 21:20:46;;;;;;;14.60;13.10;;;;;;;18.60;68.25;98849.16;435535;1257;139676;-59
2023/09/18 21:30:52;;;;;;;14.50;11.10;;;;;;;18.50;68.76;98841.37;435739;1256;141460;-61
2023/09/18 21:41:00;;;;;;;14.30;12.10;;;;;;;18.40;69.30;98836.17;435385;1257;139465;-61
2023/09/18 21:51:07;;;;;;;12.70;11.50;;;;;;;18.35;69.87;98832.02;435217;1254;139724;-60
2023/09/18 22:01:13;;;;;;;14.30;12.80;;;;;;;18.36;70.23;98822.91;435375;1256;141106;-62
2023/09/18 22:11:19;;;;;;;18.20;13.30;;;;;;;18.39;70.32;98814.39;435829;1255;140882;-61
2023/09/18 22:21:25;;;;;;;13.70;12.20;;;;;;;18.35;70.72;98805.42;435357;1256;139757;-60
2023/09/18 22:31:31;;;;;;;13.40;12.00;;;;;;;18.28;70.89;98799.13;435448;1256;141434;-60
2023/09/18 22:41:35;;;;;;;14.00;12.60;;;;;;;18.19;71.24;98792.49;435606;1256;139442;-61
2023/09/18 22:52:18;;;;;;;14.90;12.10;;;;;;;18.07;71.49;98787.20;435527;1256;140749;-60
2023/09/18 23:02:27;;;;;;;13.10;11.80;;;;;;;17.93;71.99;98779.26;436261;1255;139471;-60
2023/09/18 23:12:38;;;;;;;15.10;12.00;;;;;;;17.81;72.41;98771.39;436042;1256;141284;-62
2023/09/18 23:22:47;;;;;;;13.00;11.40;;;;;;;17.68;72.86;98763.38;435361;1255;139957;-61
2023/09/18 23:32:59;;;;;;;13.80;12.10;;;;;;;17.55;73.33;98764.21;435153;1257;140776;-62
2023/09/18 23:43:07;;;;;;;14.80;11.60;;;;;;;17.43;73.73;98759.58;436879;1256;140139;-62
2023/09/18 23:53:15;;;;;;;14.20;12.90;;;;;;;17.35;74.30;98755.11;437290;1251;140612;-60
